createdAt,value
2023-04-10T00:00:23.229Z,1018.88
2023-04-10T00:01:23.218Z,1018.86
2023-04-10T00:02:23.348Z,1018.89
2023-04-10T00:03:22.702Z,1018.88
2023-04-10T00:04:22.729Z,1018.85
2023-04-10T00:05:23.185Z,1018.81
2023-04-10T00:06:23.169Z,1018.75
2023-04-10T00:07:23.150Z,1018.77
2023-04-10T00:08:23.144Z,1018.79
2023-04-10T00:09:23.128Z,1018.77
2023-04-10T00:10:23.373Z,1018.73
2023-04-10T00:11:23.346Z,1018.73
2023-04-10T00:12:23.347Z,1018.71
2023-04-10T00:13:22.392Z,1018.72
2023-04-10T00:14:22.393Z,1018.70
2023-04-10T00:15:23.321Z,1018.70
2023-04-10T00:16:24.336Z,1018.67
2023-04-10T00:17:23.063Z,1018.65
2023-04-10T00:18:22.352Z,1018.61
2023-04-10T00:19:23.032Z,1018.63
2023-04-10T00:20:23.295Z,1018.55
2023-04-10T00:21:23.000Z,1018.58
2023-04-10T00:22:22.326Z,1018.53
2023-04-10T00:23:22.983Z,1018.55
2023-04-10T00:24:22.296Z,1018.55
2023-04-10T00:25:22.266Z,1018.51
2023-04-10T00:26:22.269Z,1018.54
2023-04-10T00:27:22.267Z,1018.58
2023-04-10T00:28:23.205Z,1018.53
2023-04-10T00:29:23.165Z,1018.54
2023-04-10T00:30:23.159Z,1018.46
2023-04-10T00:31:22.991Z,1018.49
2023-04-10T00:32:23.252Z,1018.43
2023-04-10T00:33:22.871Z,1018.45
2023-04-10T00:34:22.869Z,1018.47
2023-04-10T00:35:23.112Z,1018.42
2023-04-10T00:36:23.087Z,1018.40
2023-04-10T00:37:22.822Z,1018.41
2023-04-10T00:38:22.825Z,1018.39
2023-04-10T00:39:22.810Z,1018.38
2023-04-10T00:40:22.802Z,1018.35
2023-04-10T00:41:22.790Z,1018.34
2023-04-10T00:42:22.763Z,1018.37
2023-04-10T00:43:22.081Z,1018.35
2023-04-10T00:44:22.065Z,1018.31
2023-04-10T00:45:22.741Z,1018.30
2023-04-10T00:46:22.762Z,1018.22
2023-04-10T00:47:22.747Z,1018.25
2023-04-10T00:48:22.739Z,1018.24
2023-04-10T00:49:22.041Z,1018.23
2023-04-10T00:50:22.003Z,1018.24
2023-04-10T00:51:22.709Z,1018.19
2023-04-10T00:52:22.658Z,1018.21
2023-04-10T00:53:22.690Z,1018.18
2023-04-10T00:54:22.684Z,1018.20
2023-04-10T00:55:21.973Z,1018.24
2023-04-10T00:56:21.947Z,1018.18
2023-04-10T00:57:21.969Z,1018.21
2023-04-10T00:58:22.598Z,1018.21
2023-04-10T00:59:22.600Z,1018.14
2023-04-10T01:00:21.909Z,1018.12
2023-04-10T01:01:21.882Z,1018.16
2023-04-10T01:02:21.986Z,1018.12
2023-04-10T01:03:22.895Z,1018.13
2023-04-10T01:04:22.721Z,1018.14
2023-04-10T01:05:22.524Z,1018.13
2023-04-10T01:06:21.880Z,1018.10
2023-04-10T01:07:22.504Z,1018.10
2023-04-10T01:08:22.496Z,1018.15
2023-04-10T01:09:22.492Z,1018.15
2023-04-10T01:10:22.477Z,1018.13
2023-04-10T01:11:22.490Z,1018.10
2023-04-10T01:12:21.762Z,1018.12
2023-04-10T01:13:22.442Z,1018.15
2023-04-10T01:14:22.432Z,1018.11
2023-04-10T01:15:22.416Z,1018.19
2023-04-10T01:16:22.434Z,1018.18
2023-04-10T01:17:21.814Z,1018.14
2023-04-10T01:18:21.695Z,1018.13
2023-04-10T01:19:22.373Z,1018.11
2023-04-10T01:20:22.390Z,1018.13
2023-04-10T01:21:22.341Z,1018.15
2023-04-10T01:22:21.633Z,1018.13
2023-04-10T01:23:21.643Z,1018.14
2023-04-10T01:24:21.648Z,1018.14
2023-04-10T01:25:21.624Z,1018.21
2023-04-10T01:26:22.290Z,1018.16
2023-04-10T01:27:22.283Z,1018.16
2023-04-10T01:28:22.296Z,1018.15
2023-04-10T01:29:21.574Z,1018.14
2023-04-10T01:30:22.253Z,1018.13
2023-04-10T01:31:21.805Z,1018.11
2023-04-10T01:32:21.579Z,1018.09
2023-04-10T01:33:22.222Z,1018.07
2023-04-10T01:34:22.291Z,1018.07
2023-04-10T01:35:21.536Z,1017.99
2023-04-10T01:36:21.520Z,1017.97
2023-04-10T01:37:22.180Z,1017.94
2023-04-10T01:38:22.170Z,1017.98
2023-04-10T01:39:22.152Z,1017.91
2023-04-10T01:40:21.476Z,1017.93
2023-04-10T01:41:22.116Z,1017.94
2023-04-10T01:42:22.140Z,1017.90
2023-04-10T01:43:21.423Z,1017.92
2023-04-10T01:44:22.103Z,1017.88
2023-04-10T01:45:23.333Z,1017.93
2023-04-10T01:46:22.096Z,1017.87
2023-04-10T01:47:22.361Z,1017.84
2023-04-10T01:48:21.358Z,1017.86
2023-04-10T01:49:22.055Z,1017.85
2023-04-10T01:50:22.034Z,1017.81
2023-04-10T01:51:22.011Z,1017.85
2023-04-10T01:52:21.328Z,1017.83
2023-04-10T01:53:21.332Z,1017.81
2023-04-10T01:54:21.315Z,1017.79
2023-04-10T01:55:21.307Z,1017.76
2023-04-10T01:56:21.987Z,1017.80
2023-04-10T01:57:21.975Z,1017.81
2023-04-10T01:58:21.259Z,1017.84
2023-04-10T01:59:21.253Z,1017.80
2023-04-10T02:00:21.292Z,1017.82
2023-04-10T02:01:29.886Z,1017.87
2023-04-10T02:02:22.258Z,1017.80
2023-04-10T02:03:21.296Z,1017.88
2023-04-10T02:04:22.007Z,1017.83
2023-04-10T02:05:23.138Z,1017.81
2023-04-10T02:06:21.862Z,1017.82
2023-04-10T02:07:21.854Z,1017.84
2023-04-10T02:08:21.846Z,1017.83
2023-04-10T02:09:21.158Z,1017.81
2023-04-10T02:10:21.138Z,1017.79
2023-04-10T02:11:21.146Z,1017.80
2023-04-10T02:12:21.815Z,1017.87
2023-04-10T02:13:21.791Z,1017.82
2023-04-10T02:14:21.782Z,1017.82
2023-04-10T02:15:21.767Z,1017.80
2023-04-10T02:16:21.761Z,1017.80
2023-04-10T02:17:21.782Z,1017.77
2023-04-10T02:18:21.057Z,1017.79
2023-04-10T02:19:21.728Z,1017.77
2023-04-10T02:20:21.723Z,1017.77
2023-04-10T02:21:21.041Z,1017.74
2023-04-10T02:22:21.690Z,1017.74
2023-04-10T02:23:21.684Z,1017.77
2023-04-10T02:24:21.690Z,1017.76
2023-04-10T02:25:20.990Z,1017.75
2023-04-10T02:26:21.652Z,1017.72
2023-04-10T02:27:21.640Z,1017.79
2023-04-10T02:28:20.950Z,1017.70
2023-04-10T02:29:21.631Z,1017.68
2023-04-10T02:30:21.608Z,1017.68
2023-04-10T02:31:21.632Z,1017.71
2023-04-10T02:32:21.652Z,1017.70
2023-04-10T02:33:21.580Z,1017.74
2023-04-10T02:34:21.566Z,1017.69
2023-04-10T02:35:20.872Z,1017.71
2023-04-10T02:36:21.571Z,1017.70
2023-04-10T02:37:21.520Z,1017.70
2023-04-10T02:38:21.524Z,1017.69
2023-04-10T02:39:21.511Z,1017.70
2023-04-10T02:40:21.502Z,1017.71
2023-04-10T02:41:20.830Z,1017.66
2023-04-10T02:42:21.705Z,1017.68
2023-04-10T02:43:20.768Z,1017.73
2023-04-10T02:44:21.469Z,1017.71
2023-04-10T02:45:20.779Z,1017.70
2023-04-10T02:46:20.773Z,1017.65
2023-04-10T02:47:20.794Z,1017.64
2023-04-10T02:48:21.419Z,1017.61
2023-04-10T02:49:20.724Z,1017.59
2023-04-10T02:50:20.721Z,1017.59
2023-04-10T02:51:21.384Z,1017.56
2023-04-10T02:52:20.705Z,1017.60
2023-04-10T02:53:20.689Z,1017.53
2023-04-10T02:54:21.352Z,1017.51
2023-04-10T02:55:20.648Z,1017.55
2023-04-10T02:56:20.643Z,1017.49
2023-04-10T02:57:20.653Z,1017.53
2023-04-10T02:58:21.313Z,1017.56
2023-04-10T02:59:20.623Z,1017.52
2023-04-10T03:00:21.292Z,1017.55
2023-04-10T03:01:20.647Z,1017.49
2023-04-10T03:02:20.755Z,1017.57
2023-04-10T03:03:20.740Z,1017.51
2023-04-10T03:04:20.697Z,1017.48
2023-04-10T03:05:20.545Z,1017.44
2023-04-10T03:06:21.203Z,1017.50
2023-04-10T03:07:21.209Z,1017.49
2023-04-10T03:08:21.205Z,1017.47
2023-04-10T03:09:20.508Z,1017.47
2023-04-10T03:10:21.196Z,1017.51
2023-04-10T03:11:20.524Z,1017.50
2023-04-10T03:12:21.162Z,1017.44
2023-04-10T03:13:21.142Z,1017.44
2023-04-10T03:14:20.455Z,1017.46
2023-04-10T03:15:21.137Z,1017.46
2023-04-10T03:16:21.205Z,1017.43
2023-04-10T03:17:21.388Z,1017.44
2023-04-10T03:18:20.407Z,1017.36
2023-04-10T03:19:21.080Z,1017.46
2023-04-10T03:20:21.077Z,1017.38
2023-04-10T03:21:20.405Z,1017.36
2023-04-10T03:22:21.057Z,1017.40
2023-04-10T03:23:21.042Z,1017.37
2023-04-10T03:24:21.026Z,1017.34
2023-04-10T03:25:20.326Z,1017.35
2023-04-10T03:26:21.009Z,1017.36
2023-04-10T03:27:20.993Z,1017.31
2023-04-10T03:28:20.985Z,1017.33
2023-04-10T03:29:20.975Z,1017.34
2023-04-10T03:30:20.964Z,1017.30
2023-04-10T03:31:20.977Z,1017.28
2023-04-10T03:32:20.967Z,1017.35
2023-04-10T03:33:21.218Z,1017.28
2023-04-10T03:34:20.921Z,1017.23
2023-04-10T03:35:21.170Z,1017.26
2023-04-10T03:36:21.189Z,1017.20
2023-04-10T03:37:20.886Z,1017.20
2023-04-10T03:38:21.138Z,1017.22
2023-04-10T03:39:20.859Z,1017.19
2023-04-10T03:40:20.160Z,1017.20
2023-04-10T03:41:20.173Z,1017.19
2023-04-10T03:42:20.152Z,1017.18
2023-04-10T03:43:20.822Z,1017.14
2023-04-10T03:44:20.132Z,1017.18
2023-04-10T03:45:20.116Z,1017.21
2023-04-10T03:46:20.824Z,1017.19
2023-04-10T03:47:20.797Z,1017.18
2023-04-10T03:48:20.085Z,1017.18
2023-04-10T03:49:20.773Z,1017.14
2023-04-10T03:50:20.750Z,1017.22
2023-04-10T03:51:20.080Z,1017.20
2023-04-10T03:52:20.733Z,1017.22
2023-04-10T03:53:20.708Z,1017.17
2023-04-10T03:54:20.015Z,1017.18
2023-04-10T03:55:20.022Z,1017.22
2023-04-10T03:56:20.862Z,1017.17
2023-04-10T03:57:20.081Z,1017.18
2023-04-10T03:58:20.882Z,1017.23
2023-04-10T03:59:22.809Z,1017.22
2023-04-10T04:00:20.986Z,1017.24
2023-04-10T04:01:20.093Z,1017.25
2023-04-10T04:02:20.755Z,1017.22
2023-04-10T04:03:20.760Z,1017.24
2023-04-10T04:04:19.954Z,1017.23
2023-04-10T04:05:20.583Z,1017.20
2023-04-10T04:06:19.900Z,1017.23
2023-04-10T04:07:19.903Z,1017.20
2023-04-10T04:08:20.555Z,1017.20
2023-04-10T04:09:19.985Z,1017.22
2023-04-10T04:10:20.795Z,1017.25
2023-04-10T04:11:20.516Z,1017.22
2023-04-10T04:12:20.488Z,1017.24
2023-04-10T04:13:20.498Z,1017.20
2023-04-10T04:14:20.767Z,1017.20
2023-04-10T04:15:20.472Z,1017.19
2023-04-10T04:16:20.500Z,1017.21
2023-04-10T04:17:20.444Z,1017.19
2023-04-10T04:18:20.436Z,1017.19
2023-04-10T04:19:20.505Z,1017.22
2023-04-10T04:20:19.737Z,1017.27
2023-04-10T04:21:19.729Z,1017.23
2023-04-10T04:22:20.376Z,1017.24
2023-04-10T04:23:19.697Z,1017.26
2023-04-10T04:24:19.739Z,1017.27
2023-04-10T04:25:20.013Z,1017.23
2023-04-10T04:26:20.756Z,1017.28
2023-04-10T04:27:19.682Z,1017.29
2023-04-10T04:28:21.675Z,1017.31
2023-04-10T04:29:20.470Z,1017.27
2023-04-10T04:30:19.748Z,1017.29
2023-04-10T04:31:19.793Z,1017.26
2023-04-10T04:32:20.484Z,1017.28
2023-04-10T04:33:19.657Z,1017.21
2023-04-10T04:34:20.270Z,1017.28
2023-04-10T04:35:19.647Z,1017.26
2023-04-10T04:36:19.895Z,1017.24
2023-04-10T04:37:20.372Z,1017.28
2023-04-10T04:38:20.327Z,1017.27
2023-04-10T04:39:19.774Z,1017.22
2023-04-10T04:40:20.221Z,1017.22
2023-04-10T04:41:20.705Z,1017.20
2023-04-10T04:42:20.602Z,1017.23
2023-04-10T04:43:20.256Z,1017.22
2023-04-10T04:44:19.529Z,1017.18
2023-04-10T04:45:20.176Z,1017.19
2023-04-10T04:46:19.845Z,1017.21
2023-04-10T04:47:20.168Z,1017.23
2023-04-10T04:48:19.885Z,1017.24
2023-04-10T04:49:20.558Z,1017.22
2023-04-10T04:50:20.129Z,1017.26
2023-04-10T04:51:19.545Z,1017.23
2023-04-10T04:52:19.420Z,1017.26
2023-04-10T04:53:19.515Z,1017.25
2023-04-10T04:54:19.438Z,1017.26
2023-04-10T04:55:19.690Z,1017.24
2023-04-10T04:56:20.033Z,1017.22
2023-04-10T04:57:20.077Z,1017.20
2023-04-10T04:58:20.031Z,1017.16
2023-04-10T04:59:19.455Z,1017.17
2023-04-10T05:00:19.522Z,1017.11
2023-04-10T05:01:19.439Z,1017.09
2023-04-10T05:02:19.711Z,1017.08
2023-04-10T05:03:20.173Z,1017.10
2023-04-10T05:04:19.403Z,1017.12
2023-04-10T05:05:19.351Z,1017.13
2023-04-10T05:06:19.277Z,1017.11
2023-04-10T05:07:19.234Z,1017.16
2023-04-10T05:08:19.912Z,1017.16
2023-04-10T05:09:19.231Z,1017.13
2023-04-10T05:10:19.889Z,1017.11
2023-04-10T05:11:19.224Z,1017.11
2023-04-10T05:12:19.865Z,1017.06
2023-04-10T05:13:19.866Z,1017.10
2023-04-10T05:14:19.848Z,1017.07
2023-04-10T05:15:19.155Z,1017.08
2023-04-10T05:16:19.835Z,1017.07
2023-04-10T05:17:19.165Z,1017.06
2023-04-10T05:18:19.366Z,1017.09
2023-04-10T05:19:19.098Z,1017.09
2023-04-10T05:20:19.787Z,1017.10
2023-04-10T05:21:19.120Z,1017.14
2023-04-10T05:22:19.782Z,1017.15
2023-04-10T05:23:19.748Z,1017.15
2023-04-10T05:24:19.751Z,1017.14
2023-04-10T05:25:19.732Z,1017.13
2023-04-10T05:26:19.700Z,1017.12
2023-04-10T05:27:19.711Z,1017.12
2023-04-10T05:28:19.699Z,1017.14
2023-04-10T05:29:19.683Z,1017.18
2023-04-10T05:30:19.011Z,1017.13
2023-04-10T05:31:19.040Z,1017.16
2023-04-10T05:32:19.726Z,1017.13
2023-04-10T05:33:18.968Z,1017.15
2023-04-10T05:34:18.950Z,1017.19
2023-04-10T05:35:18.964Z,1017.15
2023-04-10T05:36:18.993Z,1017.13
2023-04-10T05:37:18.931Z,1017.11
2023-04-10T05:38:19.601Z,1017.12
2023-04-10T05:39:18.918Z,1017.15
2023-04-10T05:40:18.959Z,1017.17
2023-04-10T05:41:19.572Z,1017.19
2023-04-10T05:42:20.729Z,1017.18
2023-04-10T05:43:18.878Z,1017.22
2023-04-10T05:44:18.868Z,1017.20
2023-04-10T05:45:18.866Z,1017.18
2023-04-10T05:46:18.852Z,1017.23
2023-04-10T05:47:18.889Z,1017.19
2023-04-10T05:48:18.815Z,1017.19
2023-04-10T05:49:19.481Z,1017.18
2023-04-10T05:50:18.813Z,1017.19
2023-04-10T05:51:19.454Z,1017.21
2023-04-10T05:52:18.772Z,1017.18
2023-04-10T05:53:18.753Z,1017.11
2023-04-10T05:54:19.423Z,1017.14
2023-04-10T05:55:18.747Z,1017.12
2023-04-10T05:56:19.402Z,1017.08
2023-04-10T05:57:19.392Z,1017.05
2023-04-10T05:58:19.384Z,1017.07
2023-04-10T05:59:18.707Z,1017.03
2023-04-10T06:00:18.695Z,1017.04
2023-04-10T06:01:18.665Z,1017.09
2023-04-10T06:02:18.858Z,1017.02
2023-04-10T06:03:18.720Z,1017.05
2023-04-10T06:04:19.499Z,1016.97
2023-04-10T06:05:19.365Z,1017.00
2023-04-10T06:06:19.303Z,1017.00
2023-04-10T06:07:18.654Z,1017.03
2023-04-10T06:08:19.273Z,1017.01
2023-04-10T06:09:18.584Z,1017.04
2023-04-10T06:10:19.238Z,1017.02
2023-04-10T06:11:18.567Z,1017.04
2023-04-10T06:12:18.544Z,1017.07
2023-04-10T06:13:19.224Z,1017.04
2023-04-10T06:14:18.535Z,1017.07
2023-04-10T06:15:18.551Z,1017.08
2023-04-10T06:16:18.558Z,1017.05
2023-04-10T06:17:18.533Z,1017.05
2023-04-10T06:18:18.495Z,1017.05
2023-04-10T06:19:18.474Z,1017.04
2023-04-10T06:20:19.128Z,1017.06
2023-04-10T06:21:18.457Z,1017.06
2023-04-10T06:22:19.129Z,1017.04
2023-04-10T06:23:19.119Z,1017.07
2023-04-10T06:24:19.121Z,1017.00
2023-04-10T06:25:19.073Z,1017.03
2023-04-10T06:26:19.081Z,1016.97
2023-04-10T06:27:19.068Z,1017.01
2023-04-10T06:28:18.412Z,1017.04
2023-04-10T06:29:19.057Z,1016.99
2023-04-10T06:30:19.026Z,1017.00
2023-04-10T06:31:19.079Z,1016.99
2023-04-10T06:32:18.335Z,1017.00
2023-04-10T06:33:18.336Z,1016.98
2023-04-10T06:34:18.309Z,1017.04
2023-04-10T06:35:18.976Z,1017.00
2023-04-10T06:36:18.978Z,1017.06
2023-04-10T06:37:18.966Z,1016.98
2023-04-10T06:38:18.297Z,1016.99
2023-04-10T06:39:18.261Z,1017.00
2023-04-10T06:40:18.310Z,1016.98
2023-04-10T06:41:18.229Z,1016.97
2023-04-10T06:42:18.912Z,1016.96
2023-04-10T06:43:18.902Z,1016.91
2023-04-10T06:44:18.210Z,1016.93
2023-04-10T06:45:18.880Z,1016.99
2023-04-10T06:46:18.221Z,1016.99
2023-04-10T06:47:18.897Z,1017.02
2023-04-10T06:48:18.858Z,1016.98
2023-04-10T06:49:18.156Z,1016.96
2023-04-10T06:50:18.165Z,1016.89
2023-04-10T06:51:18.150Z,1016.91
2023-04-10T06:52:18.135Z,1016.88
2023-04-10T06:53:18.134Z,1016.80
2023-04-10T06:54:19.139Z,1016.87
2023-04-10T06:55:18.116Z,1016.81
2023-04-10T06:56:18.771Z,1016.84
2023-04-10T06:57:18.759Z,1016.85
2023-04-10T06:58:18.074Z,1016.83
2023-04-10T06:59:18.728Z,1016.85
2023-04-10T07:00:18.048Z,1016.90
2023-04-10T07:01:18.758Z,1016.84
2023-04-10T07:02:18.055Z,1016.85
2023-04-10T07:03:18.110Z,1016.78
2023-04-10T07:04:18.020Z,1016.76
2023-04-10T07:05:18.003Z,1016.80
2023-04-10T07:06:18.659Z,1016.71
2023-04-10T07:07:18.639Z,1016.74
2023-04-10T07:08:18.627Z,1016.66
2023-04-10T07:09:18.621Z,1016.74
2023-04-10T07:10:17.950Z,1016.70
2023-04-10T07:11:18.602Z,1016.74
2023-04-10T07:12:18.591Z,1016.74
2023-04-10T07:13:17.905Z,1016.69
2023-04-10T07:14:18.564Z,1016.78
2023-04-10T07:15:17.890Z,1016.80
2023-04-10T07:16:17.922Z,1016.85
2023-04-10T07:17:17.884Z,1016.81
2023-04-10T07:18:17.845Z,1016.84
2023-04-10T07:19:17.846Z,1016.79
2023-04-10T07:20:17.984Z,1016.83
2023-04-10T07:21:18.501Z,1016.77
2023-04-10T07:22:17.804Z,1016.73
2023-04-10T07:23:18.474Z,1016.81
2023-04-10T07:24:17.791Z,1016.84
2023-04-10T07:25:17.788Z,1016.78
2023-04-10T07:26:18.220Z,1016.76
2023-04-10T07:27:17.767Z,1016.80
2023-04-10T07:28:17.785Z,1016.77
2023-04-10T07:29:17.798Z,1016.68
2023-04-10T07:30:17.821Z,1016.77
2023-04-10T07:31:17.899Z,1016.77
2023-04-10T07:32:18.519Z,1016.75
2023-04-10T07:33:18.188Z,1016.73
2023-04-10T07:34:17.884Z,1016.78
2023-04-10T07:35:17.852Z,1016.65
2023-04-10T07:36:17.870Z,1016.65
2023-04-10T07:37:18.234Z,1016.64
2023-04-10T07:38:17.659Z,1016.66
2023-04-10T07:39:18.298Z,1016.52
2023-04-10T07:40:17.725Z,1016.55
2023-04-10T07:41:17.727Z,1016.44
2023-04-10T07:42:17.588Z,1016.41
2023-04-10T07:43:18.305Z,1016.38
2023-04-10T07:44:17.592Z,1016.28
2023-04-10T07:45:18.268Z,1016.23
2023-04-10T07:46:18.501Z,1016.22
2023-04-10T07:47:18.574Z,1016.15
2023-04-10T07:48:17.550Z,1016.35
2023-04-10T07:49:17.526Z,1016.30
2023-04-10T07:50:18.184Z,1016.35
2023-04-10T07:51:17.503Z,1016.27
2023-04-10T07:52:18.158Z,1016.14
2023-04-10T07:53:18.153Z,1016.22
2023-04-10T07:54:18.140Z,1016.19
2023-04-10T07:55:18.117Z,1016.24
2023-04-10T07:56:17.526Z,1016.21
2023-04-10T07:57:17.530Z,1016.30
2023-04-10T07:58:17.480Z,1016.29
2023-04-10T07:59:17.452Z,1016.22
2023-04-10T08:00:17.722Z,1016.01
2023-04-10T08:01:18.293Z,1015.89
2023-04-10T08:02:18.311Z,1016.13
2023-04-10T08:03:18.320Z,1015.93
2023-04-10T08:04:17.673Z,1015.86
2023-04-10T08:05:17.742Z,1015.92
2023-04-10T08:06:18.010Z,1015.86
2023-04-10T08:07:17.625Z,1015.93
2023-04-10T08:08:17.662Z,1015.90
2023-04-10T08:09:17.972Z,1016.01
2023-04-10T08:10:17.909Z,1016.05
2023-04-10T08:11:17.648Z,1015.94
2023-04-10T08:12:17.690Z,1015.90
2023-04-10T08:13:17.929Z,1015.84
2023-04-10T08:14:18.460Z,1015.76
2023-04-10T08:15:17.251Z,1015.67
2023-04-10T08:16:17.409Z,1015.77
2023-04-10T08:17:17.884Z,1015.75
2023-04-10T08:18:17.334Z,1015.72
2023-04-10T08:19:21.061Z,1015.79
2023-04-10T08:20:17.841Z,1015.72
2023-04-10T08:21:18.050Z,1015.77
2023-04-10T08:22:17.153Z,1015.80
2023-04-10T08:23:20.914Z,1015.84
2023-04-10T08:24:17.976Z,1015.77
2023-04-10T08:25:17.815Z,1015.78
2023-04-10T08:26:17.785Z,1015.61
2023-04-10T08:27:17.826Z,1015.65
2023-04-10T08:28:17.871Z,1015.59
2023-04-10T08:29:17.265Z,1015.71
2023-04-10T08:30:17.070Z,1015.56
2023-04-10T08:31:17.176Z,1015.56
2023-04-10T08:32:17.061Z,1015.52
2023-04-10T08:33:17.045Z,1015.65
2023-04-10T08:34:17.018Z,1015.63
2023-04-10T08:35:17.673Z,1015.57
2023-04-10T08:36:20.077Z,1015.61
2023-04-10T08:37:17.670Z,1015.50
2023-04-10T08:38:17.000Z,1015.48
2023-04-10T08:39:16.958Z,1015.46
2023-04-10T08:40:17.621Z,1015.46
2023-04-10T08:41:16.942Z,1015.50
2023-04-10T08:42:17.614Z,1015.54
2023-04-10T08:43:16.920Z,1015.60
2023-04-10T08:44:17.611Z,1015.49
2023-04-10T08:45:17.816Z,1015.58
2023-04-10T08:46:16.947Z,1015.55
2023-04-10T08:47:17.580Z,1015.61
2023-04-10T08:48:16.867Z,1015.69
2023-04-10T08:49:17.544Z,1015.54
2023-04-10T08:50:17.510Z,1015.53
2023-04-10T08:51:20.046Z,1015.53
2023-04-10T08:52:16.856Z,1015.51
2023-04-10T08:53:17.496Z,1015.48
2023-04-10T08:54:17.521Z,1015.40
2023-04-10T08:55:16.828Z,1015.28
2023-04-10T08:56:17.819Z,1015.27
2023-04-10T08:57:16.883Z,1015.22
2023-04-10T08:58:17.325Z,1015.19
2023-04-10T08:59:16.860Z,1015.15
2023-04-10T09:00:23.348Z,1015.06
2023-04-10T09:01:18.779Z,1015.14
2023-04-10T09:02:17.557Z,1015.00
2023-04-10T09:03:17.080Z,1015.04
2023-04-10T09:04:16.827Z,1015.20
2023-04-10T09:05:16.689Z,1015.06
2023-04-10T09:06:16.677Z,1015.08
2023-04-10T09:07:17.351Z,1015.09
2023-04-10T09:08:17.332Z,1015.06
2023-04-10T09:09:17.328Z,1014.98
2023-04-10T09:10:16.663Z,1015.04
2023-04-10T09:11:17.310Z,1014.87
2023-04-10T09:12:17.297Z,1014.91
2023-04-10T09:13:17.281Z,1014.89
2023-04-10T09:14:16.585Z,1014.89
2023-04-10T09:15:17.262Z,1014.80
2023-04-10T09:16:16.615Z,1014.94
2023-04-10T09:17:17.254Z,1014.95
2023-04-10T09:18:17.229Z,1014.88
2023-04-10T09:19:17.215Z,1014.77
2023-04-10T09:20:17.188Z,1014.89
2023-04-10T09:21:16.529Z,1014.82
2023-04-10T09:22:17.182Z,1014.73
2023-04-10T09:23:17.166Z,1014.64
2023-04-10T09:24:16.558Z,1014.70
2023-04-10T09:25:16.912Z,1014.63
2023-04-10T09:26:16.918Z,1014.72
2023-04-10T09:27:16.622Z,1014.81
2023-04-10T09:28:16.422Z,1014.59
2023-04-10T09:29:16.418Z,1014.54
2023-04-10T09:30:16.427Z,1014.61
2023-04-10T09:31:17.136Z,1014.63
2023-04-10T09:32:17.072Z,1014.57
2023-04-10T09:33:17.066Z,1014.54
2023-04-10T09:34:16.390Z,1014.57
2023-04-10T09:35:17.024Z,1014.24
2023-04-10T09:36:17.049Z,1014.60
2023-04-10T09:37:16.353Z,1014.63
2023-04-10T09:38:18.279Z,1014.52
2023-04-10T09:39:16.996Z,1014.53
2023-04-10T09:40:16.974Z,1014.51
2023-04-10T09:41:16.976Z,1014.46
2023-04-10T09:42:16.963Z,1014.51
2023-04-10T09:43:18.238Z,1014.52
2023-04-10T09:44:16.253Z,1014.51
2023-04-10T09:45:16.916Z,1014.61
2023-04-10T09:46:16.968Z,1014.42
2023-04-10T09:47:16.918Z,1014.47
2023-04-10T09:48:16.929Z,1014.46
2023-04-10T09:49:16.888Z,1014.48
2023-04-10T09:50:16.218Z,1014.44
2023-04-10T09:51:16.192Z,1014.43
2023-04-10T09:52:16.864Z,1014.41
2023-04-10T09:53:16.854Z,1014.43
2023-04-10T09:54:17.109Z,1014.42
2023-04-10T09:55:16.829Z,1014.45
2023-04-10T09:56:16.818Z,1014.46
2023-04-10T09:57:16.173Z,1014.37
2023-04-10T09:58:16.798Z,1014.47
2023-04-10T09:59:16.787Z,1014.36
2023-04-10T10:00:17.085Z,1014.33
2023-04-10T10:01:17.022Z,1014.25
2023-04-10T10:02:16.851Z,1014.26
2023-04-10T10:03:17.144Z,1014.33
2023-04-10T10:04:16.756Z,1014.22
2023-04-10T10:05:17.000Z,1014.21
2023-04-10T10:06:17.005Z,1014.18
2023-04-10T10:07:16.961Z,1014.20
2023-04-10T10:08:16.692Z,1014.15
2023-04-10T10:09:16.944Z,1014.13
2023-04-10T10:10:16.662Z,1014.18
2023-04-10T10:11:16.654Z,1014.12
2023-04-10T10:12:16.641Z,1014.17
2023-04-10T10:13:16.628Z,1014.20
2023-04-10T10:14:16.877Z,1014.11
2023-04-10T10:15:16.886Z,1014.11
2023-04-10T10:16:16.638Z,1014.05
2023-04-10T10:17:15.912Z,1013.92
2023-04-10T10:18:16.589Z,1014.07
2023-04-10T10:19:16.848Z,1014.02
2023-04-10T10:20:15.901Z,1014.06
2023-04-10T10:21:16.820Z,1014.03
2023-04-10T10:22:16.801Z,1014.09
2023-04-10T10:23:15.910Z,1014.06
2023-04-10T10:24:16.520Z,1014.05
2023-04-10T10:25:15.855Z,1013.95
2023-04-10T10:26:15.829Z,1013.99
2023-04-10T10:27:16.505Z,1013.89
2023-04-10T10:28:16.743Z,1013.95
2023-04-10T10:29:16.471Z,1014.07
2023-04-10T10:30:28.932Z,1013.93
2023-04-10T10:31:17.453Z,1013.87
2023-04-10T10:32:16.687Z,1013.86
2023-04-10T10:33:16.428Z,1013.90
2023-04-10T10:34:16.424Z,1013.70
2023-04-10T10:35:15.733Z,1013.79
2023-04-10T10:36:16.682Z,1013.77
2023-04-10T10:37:16.379Z,1013.78
2023-04-10T10:38:16.369Z,1013.77
2023-04-10T10:39:16.358Z,1013.71
2023-04-10T10:40:16.651Z,1013.75
2023-04-10T10:41:16.615Z,1013.37
2023-04-10T10:42:17.610Z,1013.58
2023-04-10T10:43:16.317Z,1013.59
2023-04-10T10:44:16.583Z,1013.55
2023-04-10T10:45:16.568Z,1013.55
2023-04-10T10:46:16.703Z,1013.46
2023-04-10T10:47:16.276Z,1013.48
2023-04-10T10:48:16.545Z,1013.44
2023-04-10T10:49:16.517Z,1013.38
2023-04-10T10:50:16.246Z,1013.31
2023-04-10T10:51:16.497Z,1013.37
2023-04-10T10:52:17.494Z,1013.17
2023-04-10T10:53:16.209Z,1013.26
2023-04-10T10:54:16.477Z,1013.26
2023-04-10T10:55:16.480Z,1013.16
2023-04-10T10:56:16.192Z,1013.17
2023-04-10T10:57:16.438Z,1013.16
2023-04-10T10:58:16.189Z,1013.04
2023-04-10T10:59:16.422Z,1013.15
2023-04-10T11:00:16.190Z,1013.11
2023-04-10T11:01:16.291Z,1013.16
2023-04-10T11:02:16.304Z,1013.11
2023-04-10T11:03:16.556Z,1013.15
2023-04-10T11:04:16.186Z,1013.14
2023-04-10T11:05:16.371Z,1013.12
2023-04-10T11:06:16.076Z,1013.14
2023-04-10T11:07:15.393Z,1013.07
2023-04-10T11:08:15.406Z,1013.05
2023-04-10T11:09:16.040Z,1013.06
2023-04-10T11:10:16.317Z,1013.00
2023-04-10T11:11:16.434Z,1012.95
2023-04-10T11:12:16.255Z,1012.94
2023-04-10T11:13:16.084Z,1012.99
2023-04-10T11:14:16.253Z,1012.88
2023-04-10T11:15:15.957Z,1012.93
2023-04-10T11:16:15.989Z,1012.77
2023-04-10T11:17:15.990Z,1012.78
2023-04-10T11:18:15.945Z,1012.95
2023-04-10T11:19:17.263Z,1012.80
2023-04-10T11:20:15.383Z,1012.85
2023-04-10T11:21:15.235Z,1012.79
2023-04-10T11:22:15.921Z,1012.71
2023-04-10T11:23:15.890Z,1012.67
2023-04-10T11:24:15.210Z,1012.69
2023-04-10T11:25:15.847Z,1012.64
2023-04-10T11:26:15.860Z,1012.70
2023-04-10T11:27:15.845Z,1012.66
2023-04-10T11:28:15.181Z,1012.54
2023-04-10T11:29:15.139Z,1012.61
2023-04-10T11:30:15.155Z,1012.45
2023-04-10T11:31:15.114Z,1012.53
2023-04-10T11:32:15.228Z,1012.51
2023-04-10T11:33:15.104Z,1012.50
2023-04-10T11:34:15.091Z,1012.53
2023-04-10T11:35:15.734Z,1012.46
2023-04-10T11:36:15.059Z,1012.47
2023-04-10T11:37:15.038Z,1012.45
2023-04-10T11:38:15.725Z,1012.40
2023-04-10T11:39:15.711Z,1012.45
2023-04-10T11:40:15.043Z,1012.38
2023-04-10T11:41:15.019Z,1012.18
2023-04-10T11:42:14.999Z,1012.31
2023-04-10T11:43:15.663Z,1012.34
2023-04-10T11:44:14.988Z,1012.24
2023-04-10T11:45:15.629Z,1012.05
2023-04-10T11:46:15.034Z,1012.18
2023-04-10T11:47:14.954Z,1012.09
2023-04-10T11:48:14.934Z,1012.18
2023-04-10T11:49:14.911Z,1012.19
2023-04-10T11:50:14.923Z,1012.23
2023-04-10T11:51:15.579Z,1012.09
2023-04-10T11:52:14.938Z,1012.16
2023-04-10T11:53:15.561Z,1012.18
2023-04-10T11:54:14.874Z,1012.17
2023-04-10T11:55:15.517Z,1012.10
2023-04-10T11:56:14.854Z,1012.11
2023-04-10T11:57:15.524Z,1012.12
2023-04-10T11:58:14.832Z,1012.06
2023-04-10T11:59:14.816Z,1012.09
2023-04-10T12:00:14.860Z,1012.16
2023-04-10T12:01:15.477Z,1011.99
2023-04-10T12:02:15.609Z,1012.10
2023-04-10T12:03:15.037Z,1012.01
2023-04-10T12:04:14.873Z,1012.10
2023-04-10T12:05:14.799Z,1012.05